Time;durP1;ratioP1;P1;durP2;ratioP2;P2;SDS_P1;SDS_P2;PMS_P1;PMS_P2;Temp;Humidity;BMP_temperature;BMP_pressure;BME280_temperature;BME280_humidity;BME280_pressure;Samples;Min_cycle;Max_cycle;Signal;HPM_P1;HPM_P2
2023/04/07 00:00:41;;;;;;;1.65;1.33;;;;;;;3.99;71.33;99463.75;5076791;28;20041;-67
2023/04/07 00:03:11;;;;;;;1.37;1.27;;;;;;;3.99;70.59;99468.78;5076492;28;20124;-67
2023/04/07 00:05:41;;;;;;;0.85;0.85;;;;;;;3.98;71.20;99467.06;5076460;28;20055;-67
2023/04/07 00:08:09;;;;;;;0.55;0.55;;;;;;;4.02;70.72;99468.84;5076436;28;20044;-68
2023/04/07 00:10:39;;;;;;;11.27;2.15;;;;;;;3.99;70.91;99453.63;5076495;28;20050;-67
2023/04/07 00:13:09;;;;;;;0.57;0.57;;;;;;;4.01;71.03;99467.13;5076566;28;20507;-67
2023/04/07 00:15:38;;;;;;;1.58;1.48;;;;;;;4.01;70.70;99467.13;5076090;28;20503;-69
2023/04/07 00:18:07;;;;;;;1.38;1.27;;;;;;;4.02;70.39;99463.81;5076241;28;20041;-69
2023/04/07 00:20:37;;;;;;;1.23;1.13;;;;;;;4.05;70.64;99458.81;5076457;28;20049;-69
2023/04/07 00:23:06;;;;;;;3.23;1.17;;;;;;;4.06;71.25;99459.66;5076134;28;20094;-68
2023/04/07 00:25:34;;;;;;;0.73;0.73;;;;;;;4.06;70.37;99460.53;5075848;28;20041;-68
2023/04/07 00:28:26;;;;;;;5.18;2.85;;;;;;;4.08;71.12;99450.44;5076196;28;20289;-68
2023/04/07 00:30:55;;;;;;;4.22;2.70;;;;;;;4.07;70.98;99452.13;5076184;28;20067;-67
2023/04/07 00:33:24;;;;;;;2.00;1.83;;;;;;;4.07;70.74;99457.19;5075348;28;20401;-67
2023/04/07 00:35:56;;;;;;;0.95;0.95;;;;;;;4.10;70.49;99450.50;5075045;28;20071;-67
2023/04/07 00:38:25;;;;;;;2.08;1.42;;;;;;;4.04;71.18;99441.09;5075865;28;20051;-67
2023/04/07 00:40:58;;;;;;;2.50;1.95;;;;;;;4.12;70.35;99441.28;5075821;28;20045;-68
2023/04/07 00:43:28;;;;;;;1.83;1.73;;;;;;;4.10;70.48;99437.88;5076081;28;20053;-67
2023/04/07 00:45:57;;;;;;;0.63;0.63;;;;;;;4.09;70.49;99434.47;5074511;28;20053;-67
2023/04/07 00:48:26;;;;;;;1.00;0.97;;;;;;;4.07;70.86;99442.03;5075598;28;20082;-67
2023/04/07 00:50:55;;;;;;;2.03;1.57;;;;;;;4.01;71.10;99425.88;5075534;28;20127;-67
2023/04/07 00:53:24;;;;;;;3.60;3.23;;;;;;;4.06;70.64;99430.22;5075916;28;20041;-68
2023/04/07 00:55:53;;;;;;;1.15;1.05;;;;;;;4.07;70.70;99421.84;5075579;28;20289;-67
2023/04/07 00:58:22;;;;;;;1.17;1.13;;;;;;;4.11;70.56;99420.22;5091387;28;20568;-67
2023/04/07 01:01:00;;;;;;;1.10;1.00;;;;;;;4.13;70.09;99427.84;5075446;28;20502;-68
2023/04/07 01:03:32;;;;;;;1.25;1.15;;;;;;;4.10;70.19;99425.25;5075718;28;20121;-67
2023/04/07 01:06:03;;;;;;;1.17;0.98;;;;;;;4.12;71.03;99418.53;5075374;28;20098;-70
2023/04/07 01:08:42;;;;;;;1.20;1.10;;;;;;;4.15;70.28;99421.97;5075224;28;20044;-69
2023/04/07 01:11:17;;;;;;;1.02;0.95;;;;;;;4.19;70.65;99425.44;5074285;28;20122;-68
2023/04/07 01:13:51;;;;;;;1.60;1.50;;;;;;;4.18;69.97;99413.59;5075232;28;20054;-69
2023/04/07 01:16:41;;;;;;;2.28;1.40;;;;;;;4.16;69.96;99421.16;5074980;28;20060;-68
2023/04/07 01:19:23;;;;;;;1.70;1.58;;;;;;;4.16;70.50;99413.59;5074198;28;20048;-70
2023/04/07 01:22:00;;;;;;;2.58;2.15;;;;;;;4.19;69.99;99410.28;5075321;28;20049;-68
2023/04/07 01:24:55;;;;;;;1.35;1.08;;;;;;;4.12;69.90;99408.44;5073780;28;20072;-68
2023/04/07 01:27:34;;;;;;;1.52;1.42;;;;;;;4.08;70.63;99413.44;5074925;28;20053;-66
2023/04/07 01:30:10;;;;;;;4.90;2.13;;;;;;;4.09;69.79;99409.22;5074839;28;20056;-68
2023/04/07 01:32:41;;;;;;;1.77;1.67;;;;;;;4.12;69.63;99413.50;5075022;28;20114;-67
2023/04/07 01:35:13;;;;;;;1.50;1.40;;;;;;;4.10;70.44;99405.03;5075014;28;20040;-69
2023/04/07 01:37:45;;;;;;;2.38;1.30;;;;;;;4.10;70.39;99410.09;5074340;28;20076;-69
2023/04/07 01:40:15;;;;;;;1.33;1.25;;;;;;;4.12;70.48;99403.41;5074539;28;20049;-69
2023/04/07 01:42:46;;;;;;;1.88;1.42;;;;;;;4.12;70.26;99400.88;5074591;28;20041;-69
2023/04/07 01:45:17;;;;;;;1.10;1.05;;;;;;;4.09;70.18;99399.13;5090562;28;20048;-68
2023/04/07 01:47:47;;;;;;;0.82;0.80;;;;;;;4.12;70.20;99403.41;5074535;28;20075;-68
2023/04/07 01:50:17;;;;;;;1.88;1.77;;;;;;;4.11;70.29;99396.63;5074428;28;20048;-67
2023/04/07 01:52:46;;;;;;;1.33;1.23;;;;;;;4.11;70.15;99391.59;5074758;28;20394;-68
2023/04/07 01:55:15;;;;;;;3.15;2.85;;;;;;;4.13;69.93;99400.06;5073167;28;20502;-68
2023/04/07 01:58:09;;;;;;;4.72;3.53;;;;;;;4.12;69.79;99385.72;5074602;28;20056;-68
2023/04/07 02:00:44;;;;;;;4.63;3.67;;;;;;;4.11;69.81;99391.59;5074495;28;20556;-68
2023/04/07 02:03:23;;;;;;;4.82;3.00;;;;;;;4.11;69.92;99394.09;5074204;28;20052;-69
2023/04/07 02:05:55;;;;;;;1.92;1.13;;;;;;;4.09;70.16;99383.97;5074206;28;20125;-68
2023/04/07 02:08:30;;;;;;;1.02;1.02;;;;;;;4.07;70.65;99385.63;5074451;28;20045;-68
2023/04/07 02:11:04;;;;;;;2.25;2.08;;;;;;;4.08;70.64;99383.13;5073900;28;20063;-67
2023/04/07 02:13:39;;;;;;;1.88;1.77;;;;;;;4.10;70.54;99382.31;5074066;28;20052;-67
2023/04/07 02:16:14;;;;;;;1.88;1.05;;;;;;;4.01;70.48;99382.97;5072925;28;20122;-69
2023/04/07 02:18:45;;;;;;;0.90;0.90;;;;;;;4.03;70.61;99384.72;5073979;28;20041;-68
2023/04/07 02:21:16;;;;;;;3.50;2.50;;;;;;;4.03;71.00;99384.72;5072580;28;20053;-68
2023/04/07 02:23:47;;;;;;;1.02;1.02;;;;;;;3.99;71.70;99385.47;5073853;28;20105;-68
2023/04/07 02:26:16;;;;;;;1.90;1.70;;;;;;;3.97;72.24;99387.13;5073855;28;20044;-69
2023/04/07 02:28:45;;;;;;;4.10;2.80;;;;;;;3.96;71.92;99387.06;5073806;28;20032;-68
2023/04/07 02:31:15;;;;;;;2.37;1.83;;;;;;;3.92;72.00;99376.06;5074072;28;20041;-68
2023/04/07 02:33:47;;;;;;;2.45;1.50;;;;;;;3.90;72.43;99377.72;5073661;28;20116;-69
2023/04/07 02:36:16;;;;;;;2.60;1.52;;;;;;;3.89;72.79;99380.19;5073728;28;20045;-69
2023/04/07 02:38:45;;;;;;;2.80;2.47;;;;;;;3.84;73.03;99387.66;5072534;28;20048;-69
2023/04/07 02:41:14;;;;;;;2.15;1.33;;;;;;;3.81;74.29;99382.59;5072414;28;20040;-70
2023/04/07 02:43:43;;;;;;;2.03;1.83;;;;;;;3.80;74.67;99383.38;5072612;28;20040;-69
2023/04/07 02:46:12;;;;;;;3.53;2.42;;;;;;;3.76;74.26;99378.25;5072413;28;20048;-70
2023/04/07 02:48:45;;;;;;;1.38;1.27;;;;;;;3.74;75.03;99383.25;5073239;28;20390;-69
2023/04/07 02:51:14;;;;;;;0.98;0.75;;;;;;;3.70;75.05;99384.00;5072425;28;20067;-68
2023/04/07 02:53:43;;;;;;;10.98;3.08;;;;;;;3.68;75.50;99374.69;5088985;28;20135;-67
2023/04/07 02:56:12;;;;;;;1.00;1.00;;;;;;;3.62;76.07;99377.97;5089455;28;20060;-69
2023/04/07 02:58:42;;;;;;;5.43;3.90;;;;;;;3.57;76.27;99376.16;5072449;28;20044;-70
2023/04/07 03:01:11;;;;;;;0.73;0.73;;;;;;;3.55;76.82;99381.13;5072536;28;20398;-70
2023/04/07 03:03:41;;;;;;;2.03;1.80;;;;;;;3.52;76.83;99373.53;5073695;28;20397;-69
2023/04/07 03:06:18;;;;;;;2.15;1.20;;;;;;;3.46;76.84;99358.25;5072277;28;20052;-69
2023/04/07 03:09:04;;;;;;;1.00;0.95;;;;;;;3.49;76.71;99362.50;5072457;28;20091;-69
2023/04/07 03:11:34;;;;;;;1.52;1.42;;;;;;;3.46;77.11;99363.28;5073379;28;20055;-70
2023/04/07 03:14:04;;;;;;;2.08;1.88;;;;;;;3.49;77.52;99367.56;5072245;28;20116;-68
2023/04/07 03:16:34;;;;;;;7.68;1.00;;;;;;;3.47;77.71;99365.00;5071866;28;20061;-68
2023/04/07 03:19:08;;;;;;;3.80;3.10;;;;;;;3.49;77.36;99368.41;5073598;28;20059;-68
2023/04/07 03:21:43;;;;;;;2.42;2.22;;;;;;;3.54;77.12;99365.97;5072532;28;20044;-67
2023/04/07 03:24:12;;;;;;;2.80;2.00;;;;;;;3.50;77.17;99365.09;5073265;28;20069;-67
2023/04/07 03:26:40;;;;;;;1.30;1.20;;;;;;;3.51;77.58;99356.69;5072146;28;20036;-68
2023/04/07 03:29:19;;;;;;;2.78;2.25;;;;;;;3.58;77.49;99363.56;5073175;28;20056;-69
2023/04/07 03:31:48;;;;;;;1.98;0.77;;;;;;;3.63;77.57;99356.94;5089140;28;20063;-69
2023/04/07 03:34:21;;;;;;;1.17;1.10;;;;;;;3.66;77.12;99361.19;5089028;28;20049;-68
2023/04/07 03:36:51;;;;;;;0.52;0.52;;;;;;;3.60;76.93;99346.78;5072971;28;20036;-69
2023/04/07 03:39:20;;;;;;;1.30;1.20;;;;;;;3.64;76.55;99356.13;5073081;28;20087;-68
2023/04/07 03:41:50;;;;;;;1.05;1.00;;;;;;;3.64;76.22;99357.81;5088896;28;20518;-68
2023/04/07 03:44:19;;;;;;;3.25;2.13;;;;;;;3.67;76.38;99357.88;5071793;28;20033;-69
2023/04/07 03:46:49;;;;;;;2.47;2.28;;;;;;;3.69;76.94;99352.03;5073517;28;20045;-69
2023/04/07 03:49:20;;;;;;;3.55;1.65;;;;;;;3.70;75.88;99358.78;5073275;28;20044;-68
2023/04/07 03:51:51;;;;;;;3.83;2.38;;;;;;;3.69;76.59;99357.09;5071801;28;20076;-69
2023/04/07 03:54:21;;;;;;;0.63;0.63;;;;;;;3.70;76.42;99357.91;5072842;28;20048;-68
2023/04/07 03:56:50;;;;;;;4.32;1.25;;;;;;;3.74;76.48;99357.19;5072030;28;20066;-69
2023/04/07 03:59:23;;;;;;;1.92;1.73;;;;;;;3.75;76.40;99351.28;5073023;28;20131;-69
2023/04/07 04:01:58;;;;;;;0.85;0.80;;;;;;;3.78;75.40;99357.28;5075705;28;20067;-69
2023/04/07 04:04:29;;;;;;;1.27;1.17;;;;;;;3.77;75.33;99355.56;5076548;28;20044;-68
2023/04/07 04:07:03;;;;;;;2.38;2.20;;;;;;;3.73;75.11;99368.94;5076764;28;20052;-69
2023/04/07 04:09:43;;;;;;;2.60;1.85;;;;;;;3.68;75.13;99365.47;5076337;28;20048;-70
2023/04/07 04:12:13;;;;;;;1.50;1.17;;;;;;;3.71;75.91;99365.53;5076300;28;20036;-69
2023/04/07 04:14:56;;;;;;;1.27;1.17;;;;;;;3.74;75.94;99365.56;5076178;28;20048;-69
2023/04/07 04:17:25;;;;;;;0.43;0.43;;;;;;;3.74;75.33;99370.63;5075084;28;20090;-68
2023/04/07 04:19:55;;;;;;;1.60;1.50;;;;;;;3.76;75.79;99373.19;5075292;28;20090;-68
2023/04/07 04:22:33;;;;;;;0.95;0.90;;;;;;;3.75;75.76;99372.34;5075566;28;20157;-69
2023/04/07 04:25:02;;;;;;;2.42;2.25;;;;;;;3.73;75.01;99374.00;5075229;28;20110;-70
2023/04/07 04:27:32;;;;;;;;;;;;;;;3.75;75.36;99372.34;5076795;28;20052;-70
2023/04/07 04:30:10;;;;;;;3.75;1.67;;;;;;;3.65;75.09;99355.28;5076080;28;19920;-70
2023/04/07 04:32:45;;;;;;;3.20;1.00;;;;;;;3.80;74.92;99374.97;5075903;28;20048;-70
2023/04/07 04:35:17;;;;;;;0.63;0.57;;;;;;;3.83;74.60;99375.88;5075975;28;20521;-70
2023/04/07 04:38:00;;;;;;;1.80;1.70;;;;;;;3.84;75.17;99386.84;5076141;28;20075;-70
2023/04/07 04:40:28;;;;;;;1.20;1.13;;;;;;;3.86;74.45;99388.56;5075313;28;20113;-69
2023/04/07 04:42:57;;;;;;;2.08;0.93;;;;;;;3.86;75.13;99386.03;5075720;28;20066;-68
2023/04/07 04:45:27;;;;;;;2.67;1.92;;;;;;;3.84;75.28;99382.63;5074939;28;20044;-68
2023/04/07 04:47:56;;;;;;;1.08;1.08;;;;;;;3.85;75.29;99373.38;5074516;28;20153;-69
2023/04/07 04:50:25;;;;;;;1.87;1.70;;;;;;;3.85;75.20;99389.38;5075697;28;20045;-68
2023/04/07 04:52:54;;;;;;;1.55;1.40;;;;;;;3.84;74.97;99382.63;5074554;28;20098;-68
2023/04/07 04:55:26;;;;;;;3.03;1.58;;;;;;;3.81;74.46;99387.63;5075525;28;20051;-68
2023/04/07 04:57:55;;;;;;;1.63;1.52;;;;;;;3.84;74.73;99387.66;5074387;28;20053;-68
2023/04/07 05:00:34;;;;;;;1.43;1.33;;;;;;;3.85;74.89;99398.63;5074326;28;20055;-69
2023/04/07 05:03:07;;;;;;;0.95;0.95;;;;;;;3.83;74.86;99385.97;5075347;28;20293;-69
2023/04/07 05:05:40;;;;;;;1.58;1.48;;;;;;;3.82;74.60;99384.28;5091003;28;20044;-69
2023/04/07 05:08:11;;;;;;;;;;;;;;;3.86;74.92;99388.56;5075711;28;20059;-68
2023/04/07 05:10:42;;;;;;;1.40;1.30;;;;;;;3.90;75.26;99381.91;5075584;28;19920;-68
2023/04/07 05:13:17;;;;;;;1.70;1.25;;;;;;;3.89;74.91;99377.66;5073249;28;20088;-69
2023/04/07 05:15:47;;;;;;;0.70;0.70;;;;;;;3.93;74.34;99370.22;5074000;28;20124;-68
2023/04/07 05:18:16;;;;;;;0.77;0.77;;;;;;;3.93;75.12;99367.69;5090870;28;20090;-68
2023/04/07 05:20:46;;;;;;;;;;;;;;;3.94;75.25;99369.38;5075539;28;20080;-68
2023/04/07 05:23:15;;;;;;;0.75;0.75;;;;;;;3.96;74.58;99375.31;5073735;28;19926;-68
2023/04/07 05:25:48;;;;;;;0.63;0.60;;;;;;;4.01;74.98;99381.31;5075309;28;20052;-68
2023/04/07 05:28:19;;;;;;;1.63;1.52;;;;;;;4.03;74.99;99383.88;5074956;28;20056;-68
2023/04/07 05:30:49;;;;;;;1.58;1.48;;;;;;;4.04;74.89;99388.09;5074004;28;20589;-68
2023/04/07 05:33:19;;;;;;;1.42;1.35;;;;;;;4.02;74.22;99375.44;5073514;28;20131;-69
2023/04/07 05:35:53;;;;;;;0.60;0.60;;;;;;;4.03;74.27;99384.72;5073592;28;20049;-67
2023/04/07 05:38:22;;;;;;;2.40;2.20;;;;;;;4.08;74.68;99387.31;5074644;28;20040;-68
2023/04/07 05:40:54;;;;;;;1.40;1.30;;;;;;;4.15;74.08;99394.19;5073759;28;20049;-68
2023/04/07 05:43:32;;;;;;;1.50;1.17;;;;;;;4.20;73.97;99392.63;5074603;28;20071;-68
2023/04/07 05:46:01;;;;;;;1.88;1.75;;;;;;;4.22;74.61;99392.66;5090231;28;20502;-69
2023/04/07 05:48:31;;;;;;;1.75;1.65;;;;;;;4.28;74.56;99402.88;5074472;28;20048;-68
2023/04/07 05:51:00;;;;;;;1.80;1.33;;;;;;;4.27;74.10;99403.72;5073594;28;20091;-68
2023/04/07 05:53:29;;;;;;;0.73;0.73;;;;;;;4.29;74.32;99402.06;5074226;28;20044;-69
2023/04/07 05:56:00;;;;;;;;;;;;;;;4.25;74.67;99402.84;5073906;28;20051;-69
2023/04/07 05:58:40;;;;;;;4.20;1.33;;;;;;;4.24;75.05;99404.50;5074350;28;19920;-69
2023/04/07 06:01:10;;;;;;;0.40;0.40;;;;;;;4.20;76.14;99394.31;5073093;28;20049;-69
2023/04/07 06:03:39;;;;;;;0.85;0.85;;;;;;;4.21;76.62;99401.91;5074424;28;20414;-70
2023/04/07 06:06:16;;;;;;;2.63;1.10;;;;;;;4.24;76.97;99393.53;5074171;28;20052;-70
2023/04/07 06:08:46;;;;;;;2.20;1.77;;;;;;;4.25;77.18;99390.22;5083470;28;20047;-70
2023/04/07 06:11:17;;;;;;;1.58;1.40;;;;;;;4.18;77.06;99383.31;5094882;28;20105;-72
2023/04/07 06:13:45;;;;;;;0.68;0.68;;;;;;;4.14;77.08;99391.66;5094356;28;20066;-70
2023/04/07 06:16:15;;;;;;;2.30;2.10;;;;;;;4.21;77.81;99396.84;5093944;28;20048;-70
2023/04/07 06:18:46;;;;;;;0.50;0.50;;;;;;;4.25;77.86;99392.72;5094117;28;20051;-70
2023/04/07 06:21:15;;;;;;;6.40;1.92;;;;;;;4.24;77.40;99396.94;5093014;28;20113;-70
2023/04/07 06:23:44;;;;;;;1.05;0.98;;;;;;;4.22;77.97;99387.63;5092681;28;20067;-71
2023/04/07 06:26:13;;;;;;;1.13;1.02;;;;;;;4.17;77.34;99385.00;5094019;28;20156;-71
2023/04/07 06:28:43;;;;;;;3.17;2.88;;;;;;;4.17;77.97;99389.19;5094041;28;20040;-70
2023/04/07 06:31:12;;;;;;;0.70;0.70;;;;;;;4.17;77.83;99386.66;5092894;28;20047;-70
2023/04/07 06:33:42;;;;;;;;;;;;;;;4.15;77.93;99385.78;5094278;28;20101;-70
2023/04/07 06:36:11;;;;;;;2.35;1.70;;;;;;;4.16;78.16;99388.34;5092778;28;20074;-70
2023/04/07 06:38:40;;;;;;;0.30;0.30;;;;;;;4.18;77.83;99388.34;5093840;28;20132;-70
2023/04/07 06:41:11;;;;;;;0.50;0.50;;;;;;;4.12;77.51;99388.25;5093873;28;20052;-70
2023/04/07 06:43:41;;;;;;;1.90;1.23;;;;;;;4.16;77.85;99390.84;5094286;28;20478;-70
2023/04/07 06:46:11;;;;;;;2.47;2.27;;;;;;;4.15;77.34;99390.84;5093736;28;20054;-70
2023/04/07 06:48:40;;;;;;;2.10;1.92;;;;;;;4.19;77.14;99400.16;5093797;28;20277;-71
2023/04/07 06:51:09;;;;;;;1.17;1.10;;;;;;;4.12;77.10;99403.41;5093675;28;20375;-71
2023/04/07 06:53:39;;;;;;;1.42;1.33;;;;;;;4.04;77.12;99400.72;5093625;28;20036;-70
2023/04/07 06:56:09;;;;;;;2.30;2.00;;;;;;;4.03;77.15;99404.91;5093939;28;20052;-70
2023/04/07 06:58:38;;;;;;;4.20;3.00;;;;;;;3.99;77.84;99408.19;5093659;28;20044;-70
2023/04/07 07:01:07;;;;;;;0.68;0.68;;;;;;;4.06;77.45;99410.03;5093594;28;20047;-69
2023/04/07 07:03:38;;;;;;;0.68;0.65;;;;;;;4.05;77.99;99417.59;5093849;28;20063;-68
2023/04/07 07:06:07;;;;;;;1.15;1.05;;;;;;;4.08;77.99;99417.63;5094123;28;20044;-68
2023/04/07 07:08:36;;;;;;;2.38;2.17;;;;;;;4.15;78.55;99421.16;5093038;28;20490;-69
2023/04/07 07:11:04;;;;;;;1.65;1.55;;;;;;;4.22;78.41;99415.41;5093461;28;20044;-69
2023/04/07 07:13:33;;;;;;;23.20;2.50;;;;;;;4.30;78.91;99413.84;5093396;28;20036;-70
2023/04/07 07:16:03;;;;;;;0.83;0.80;;;;;;;4.40;78.66;99420.78;5093269;28;20451;-70
2023/04/07 07:18:40;;;;;;;1.45;1.13;;;;;;;4.48;79.16;99419.28;5093802;28;20638;-69
2023/04/07 07:21:09;;;;;;;1.58;1.48;;;;;;;4.54;79.41;99424.44;5091826;28;20363;-69
2023/04/07 07:23:39;;;;;;;5.30;3.15;;;;;;;4.55;79.24;99427.00;5092780;28;20056;-70
2023/04/07 07:26:08;;;;;;;;;;;;;;;4.59;79.05;99427.91;5094166;28;20055;-69
2023/04/07 07:28:37;;;;;;;0.30;0.30;;;;;;;4.64;78.89;99418.72;5093564;28;19966;-69
2023/04/07 07:31:11;;;;;;;0.60;0.60;;;;;;;4.65;78.59;99433.91;5093262;28;20559;-70
2023/04/07 07:33:44;;;;;;;2.40;1.88;;;;;;;4.68;78.55;99433.13;5093028;28;20076;-69
2023/04/07 07:36:14;;;;;;;0.82;0.82;;;;;;;4.71;78.93;99428.13;5095897;28;20044;-70
2023/04/07 07:38:42;;;;;;;0.50;0.50;;;;;;;4.70;78.43;99436.56;5097074;28;20044;-69
2023/04/07 07:41:12;;;;;;;1.15;1.05;;;;;;;4.66;78.79;99419.59;5097263;28;20429;-69
2023/04/07 07:43:40;;;;;;;1.23;1.13;;;;;;;4.75;78.11;99435.78;5097181;28;20444;-69
2023/04/07 07:46:09;;;;;;;0.70;0.70;;;;;;;4.84;78.60;99432.59;5097425;28;20037;-69
2023/04/07 07:48:38;;;;;;;1.98;1.05;;;;;;;4.89;77.95;99431.00;5096983;28;20563;-69
2023/04/07 07:51:08;;;;;;;2.40;1.42;;;;;;;4.98;78.28;99435.34;5096421;28;20452;-69
2023/04/07 07:53:37;;;;;;;1.02;0.88;;;;;;;5.01;77.84;99438.81;5096714;28;20044;-69
2023/04/07 07:56:06;;;;;;;1.45;1.35;;;;;;;5.11;77.89;99440.63;5096704;28;20440;-69
2023/04/07 07:58:34;;;;;;;0.68;0.68;;;;;;;5.16;77.42;99431.47;5096773;28;20565;-68
2023/04/07 08:01:03;;;;;;;1.17;1.13;;;;;;;5.27;77.59;99442.63;5096714;28;20093;-68
2023/04/07 08:03:32;;;;;;;2.65;2.20;;;;;;;5.34;76.99;99439.38;5096720;28;20050;-68
2023/04/07 08:06:02;;;;;;;0.77;0.77;;;;;;;5.36;76.87;99441.91;5096556;28;20126;-68
2023/04/07 08:08:32;;;;;;;1.15;1.05;;;;;;;5.50;76.14;99449.69;5096468;28;20040;-69
2023/04/07 08:11:01;;;;;;;0.20;0.20;;;;;;;5.62;76.07;99449.88;5096257;28;20105;-69
2023/04/07 08:13:30;;;;;;;1.05;1.00;;;;;;;5.65;75.88;99445.75;5096542;28;20048;-69
2023/04/07 08:15:59;;;;;;;1.75;1.63;;;;;;;5.69;75.16;99444.94;5096221;28;20130;-69
2023/04/07 08:18:28;;;;;;;1.40;1.10;;;;;;;5.84;75.25;99451.91;5094003;28;20127;-69
2023/04/07 08:20:57;;;;;;;0.63;0.63;;;;;;;5.87;74.99;99444.41;5061658;28;20040;-70
2023/04/07 08:23:26;;;;;;;2.53;1.83;;;;;;;5.89;74.53;99451.19;5096522;28;20055;-70
2023/04/07 08:25:56;;;;;;;1.90;1.55;;;;;;;5.95;74.40;99446.19;5096752;28;20386;-69
2023/04/07 08:28:26;;;;;;;2.15;1.15;;;;;;;6.01;74.12;99445.44;5096442;28;20221;-70
2023/04/07 08:30:55;;;;;;;2.70;2.10;;;;;;;6.11;74.16;99444.75;5094004;28;20079;-69
2023/04/07 08:33:24;;;;;;;1.38;1.27;;;;;;;6.16;73.29;99453.25;5096289;28;20112;-69
2023/04/07 08:35:53;;;;;;;1.77;1.67;;;;;;;6.22;73.12;99448.25;5095806;28;20064;-69
2023/04/07 08:38:22;;;;;;;1.45;1.30;;;;;;;6.43;72.49;99450.22;5096062;28;20284;-69
2023/04/07 08:41:00;;;;;;;1.75;1.38;;;;;;;6.77;72.33;99438.78;5096081;28;20040;-69
2023/04/07 08:43:29;;;;;;;1.13;1.02;;;;;;;6.97;72.68;99443.19;5096201;28;20375;-69
2023/04/07 08:45:58;;;;;;;1.27;1.07;;;;;;;7.17;71.74;99445.91;5096154;28;20032;-70
2023/04/07 08:48:32;;;;;;;0.63;0.63;;;;;;;7.16;70.64;99449.28;5096164;28;20047;-70
2023/04/07 08:51:07;;;;;;;1.05;1.02;;;;;;;7.29;70.28;99443.50;5096073;28;20051;-69
2023/04/07 08:53:43;;;;;;;1.92;1.77;;;;;;;7.59;69.82;99447.94;5095856;28;20047;-69
2023/04/07 09:35:55;;;;;;;8.57;1.85;;;;;;;7.54;67.32;99445.38;5091572;27;20393;-69
2023/04/07 09:38:33;;;;;;;1.65;1.33;;;;;;;7.51;66.63;99450.41;5091145;28;20050;-69
2023/04/07 09:41:10;;;;;;;0.75;0.70;;;;;;;7.54;65.54;99444.50;5090686;28;20036;-70
2023/04/07 09:43:40;;;;;;;3.55;1.00;;;;;;;7.77;65.98;99438.78;5091246;28;20050;-70
2023/04/07 09:46:11;;;;;;;0.40;0.40;;;;;;;7.79;65.24;99447.25;5091420;28;20127;-70
2023/04/07 09:48:41;;;;;;;1.25;1.00;;;;;;;7.94;64.97;99442.25;5070709;28;20102;-70
2023/04/07 09:51:13;;;;;;;1.17;1.15;;;;;;;7.97;64.89;99442.28;5070533;28;20037;-70
2023/04/07 09:53:44;;;;;;;1.40;0.95;;;;;;;8.08;64.21;99430.50;5070505;28;20132;-70
2023/04/07 09:56:15;;;;;;;1.02;0.85;;;;;;;8.06;63.54;99439.78;5069745;28;20045;-70
2023/04/07 09:58:46;;;;;;;1.15;1.05;;;;;;;8.06;63.18;99444.84;5069501;28;20098;-70
2023/04/07 10:01:16;;;;;;;1.23;1.15;;;;;;;8.18;63.19;99441.56;5070420;28;20151;-70
2023/04/07 10:03:47;;;;;;;1.35;1.25;;;;;;;8.23;63.18;99444.13;5070567;28;20122;-70
2023/04/07 10:06:17;;;;;;;3.78;1.15;;;;;;;8.13;62.72;99442.38;5070354;28;20057;-70
2023/04/07 10:08:47;;;;;;;0.60;0.60;;;;;;;8.37;63.98;99437.44;5070284;28;20048;-70
2023/04/07 10:11:16;;;;;;;1.92;1.77;;;;;;;8.78;64.07;99430.78;5070690;28;20051;-69
2023/04/07 10:13:45;;;;;;;13.10;1.10;;;;;;;8.87;62.81;99425.72;5070057;28;20071;-70
2023/04/07 10:16:16;;;;;;;0.65;0.65;;;;;;;9.02;62.16;99419.78;5070189;28;20072;-70
2023/04/07 10:18:45;;;;;;;0.40;0.40;;;;;;;9.39;61.14;99424.91;5070009;28;20047;-70
2023/04/07 10:21:18;;;;;;;0.40;0.40;;;;;;;9.44;60.52;99423.19;5069990;28;20076;-70
2023/04/07 10:23:56;;;;;;;4.38;1.48;;;;;;;9.38;59.31;99419.81;5070006;28;20087;-71
2023/04/07 10:26:30;;;;;;;1.38;0.98;;;;;;;9.42;58.76;99417.25;5069915;28;20072;-71
2023/04/07 10:29:06;;;;;;;2.40;2.20;;;;;;;9.41;58.59;99420.66;5070136;28;20131;-71
2023/04/07 10:31:37;;;;;;;0.63;0.63;;;;;;;9.55;58.13;99414.72;5069719;28;20056;-70
2023/04/07 10:34:06;;;;;;;0.52;0.50;;;;;;;9.56;58.05;99416.38;5069376;28;20135;-71
2023/04/07 10:36:37;;;;;;;1.02;0.98;;;;;;;9.66;58.62;99410.44;5069681;28;20075;-70
2023/04/07 10:39:23;;;;;;;1.27;0.98;;;;;;;9.63;57.33;99415.53;5069094;28;20048;-70
2023/04/07 10:41:52;;;;;;;1.77;1.45;;;;;;;9.42;56.89;99422.34;5069491;28;20052;-70
2023/04/07 10:44:43;;;;;;;0.80;0.80;;;;;;;9.37;57.79;99418.09;5068420;28;20114;-70
2023/04/07 10:47:13;;;;;;;1.25;1.20;;;;;;;9.68;57.87;99421.47;5056549;28;20091;-70
2023/04/07 10:50:01;;;;;;;;;;;;;;;9.84;56.79;99425.69;5056685;28;20487;-70
2023/04/07 10:52:31;;;;;;;1.55;1.20;;;;;;;9.80;57.21;99429.09;5054719;28;19920;-70
2023/04/07 10:55:22;;;;;;;0.70;0.70;;;;;;;9.92;56.71;99418.88;5056381;28;20133;-70
2023/04/07 10:58:17;;;;;;;1.10;0.98;;;;;;;9.91;57.31;99392.53;5056336;28;20124;-70
2023/04/07 11:01:11;;;;;;;1.30;1.10;;;;;;;10.37;57.85;99412.81;5055934;28;20373;-69
2023/04/07 11:03:42;;;;;;;1.40;1.30;;;;;;;10.47;56.90;99414.47;5056169;28;20037;-70
2023/04/07 11:06:12;;;;;;;0.60;0.60;;;;;;;10.62;57.00;99414.41;5054690;28;20128;-70
2023/04/07 11:08:45;;;;;;;0.50;0.50;;;;;;;10.49;56.34;99418.69;5056054;28;20091;-70
2023/04/07 11:11:21;;;;;;;0.90;0.90;;;;;;;10.21;55.55;99404.38;5055657;28;20099;-69
2023/04/07 11:13:51;;;;;;;1.48;1.38;;;;;;;10.07;55.27;99403.56;5055518;28;20059;-69
2023/04/07 11:16:20;;;;;;;;;;;;;;;10.18;55.25;99391.63;5056131;28;20095;-69
2023/04/07 11:18:49;;;;;;;1.13;1.08;;;;;;;10.55;56.33;99393.16;5056099;28;20321;-70
2023/04/07 11:21:19;;;;;;;0.50;0.50;;;;;;;10.60;55.34;99396.56;5055671;28;20064;-70
2023/04/07 11:23:49;;;;;;;1.60;1.50;;;;;;;10.81;55.95;99397.25;5055528;28;20312;-69
2023/04/07 11:26:19;;;;;;;2.97;0.93;;;;;;;11.01;55.79;99390.34;5055906;28;20045;-69
2023/04/07 11:28:50;;;;;;;2.60;0.93;;;;;;;11.13;56.39;99393.63;5055687;28;20055;-70
2023/04/07 11:31:23;;;;;;;0.57;0.57;;;;;;;10.81;55.46;99394.72;5055421;28;20072;-70
2023/04/07 11:33:55;;;;;;;3.05;1.38;;;;;;;10.61;55.17;99398.22;5055146;28;20071;-70
2023/04/07 11:36:28;;;;;;;0.68;0.68;;;;;;;10.41;54.89;99394.94;5055298;28;20047;-70
2023/04/07 11:39:01;;;;;;;0.82;0.82;;;;;;;10.27;55.40;99406.88;5055569;28;20084;-69
2023/04/07 11:41:32;;;;;;;0.90;0.90;;;;;;;10.01;55.19;99403.56;5055221;28;20049;-70
2023/04/07 11:44:09;;;;;;;1.45;1.35;;;;;;;10.05;55.59;99405.25;5055180;28;20056;-69
2023/04/07 11:46:53;;;;;;;2.05;1.27;;;;;;;9.95;55.33;99403.59;5055381;28;20461;-69
2023/04/07 11:49:23;;;;;;;1.10;0.95;;;;;;;9.77;54.95;99403.59;5055143;28;20103;-69
2023/04/07 11:51:58;;;;;;;0.65;0.65;;;;;;;9.34;56.13;99367.16;5055593;28;20057;-69
2023/04/07 11:54:38;;;;;;;2.15;1.85;;;;;;;9.82;56.25;99407.84;5055012;28;20076;-70
2023/04/07 11:57:10;;;;;;;0.73;0.50;;;;;;;9.90;55.80;99400.19;5054527;28;20068;-70
2023/04/07 11:59:40;;;;;;;1.33;1.23;;;;;;;10.00;55.74;99410.38;5054620;28;20045;-69
2023/04/07 12:02:09;;;;;;;1.55;1.45;;;;;;;10.08;55.86;99408.63;5054724;28;20067;-69
2023/04/07 12:04:39;;;;;;;0.95;0.95;;;;;;;10.04;56.57;99409.50;5055053;28;20044;-69
2023/04/07 12:07:10;;;;;;;0.75;0.75;;;;;;;10.25;57.13;99398.41;5054724;28;20132;-69
2023/04/07 12:09:41;;;;;;;0.63;0.63;;;;;;;10.26;57.14;99387.34;5054711;28;20092;-69
2023/04/07 12:12:10;;;;;;;0.85;0.85;;;;;;;10.28;56.35;99393.28;5054811;28;20052;-71
2023/04/07 12:14:39;;;;;;;1.38;1.27;;;;;;;10.10;56.31;99406.09;5054733;28;20507;-68
2023/04/07 12:17:08;;;;;;;0.57;0.57;;;;;;;9.96;56.12;99403.56;5054367;28;20037;-70
2023/04/07 12:19:38;;;;;;;2.13;1.45;;;;;;;9.99;56.62;99395.91;5054720;28;20071;-70
2023/04/07 12:22:07;;;;;;;1.25;1.15;;;;;;;10.00;56.10;99396.78;5054461;28;20085;-69
2023/04/07 12:24:36;;;;;;;0.70;0.70;;;;;;;9.95;55.93;99395.94;5054355;28;20038;-70
2023/04/07 12:27:07;;;;;;;1.92;0.88;;;;;;;9.79;56.29;99391.75;5054435;28;20043;-70
2023/04/07 12:29:36;;;;;;;0.50;0.50;;;;;;;9.82;56.19;99386.59;5053382;28;20144;-70
2023/04/07 12:32:05;;;;;;;0.60;0.60;;;;;;;9.95;57.12;99394.25;5054282;28;20045;-70
2023/04/07 12:34:36;;;;;;;0.80;0.80;;;;;;;10.01;56.56;99398.44;5053991;28;20048;-70
2023/04/07 12:37:06;;;;;;;0.75;0.75;;;;;;;10.19;56.76;99390.78;5054199;28;20045;-70
2023/04/07 12:39:34;;;;;;;0.67;0.67;;;;;;;10.30;57.08;99385.63;5054395;28;20102;-70
2023/04/07 12:42:04;;;;;;;1.10;1.00;;;;;;;10.41;57.85;99394.94;5054360;28;20335;-70